Time;durP1;ratioP1;P1;durP2;ratioP2;P2;SDS_P1;SDS_P2;PMS_P1;PMS_P2;Temp;Humidity;BMP_temperature;BMP_pressure;BME280_temperature;BME280_humidity;BME280_pressure;Samples;Min_cycle;Max_cycle;Signal;HPM_P1;HPM_P2
2022/06/17 01:03:00;;;;;;;55.20;52.00;;;;;;;27.40;32.60;102221.19;4997332;23;20149;-73
2022/06/17 01:05:31;;;;;;;56.08;52.88;;;;;;;27.37;32.52;102224.63;4975737;28;20050;-71
2022/06/17 01:08:02;;;;;;;56.47;53.50;;;;;;;27.36;32.86;102221.00;4976063;28;20478;-73
2022/06/17 01:10:29;;;;;;;60.15;56.85;;;;;;;27.33;32.91;102216.09;4975764;28;20363;-73
2022/06/17 01:13:05;;;;;;;56.35;53.42;;;;;;;27.32;32.68;102219.22;4975794;28;20035;-72
2022/06/17 01:15:32;;;;;;;62.67;59.13;;;;;;;27.29;32.89;102222.59;4975650;28;20384;-71
2022/06/17 01:17:59;;;;;;;59.25;55.65;;;;;;;27.28;33.05;102221.00;4976208;28;20070;-73
2022/06/17 01:20:28;;;;;;;57.10;54.10;;;;;;;27.25;32.84;102216.09;4975500;28;20521;-71
2022/06/17 01:22:57;;;;;;;58.08;54.92;;;;;;;27.23;33.17;102212.81;4975062;28;20035;-74
2022/06/17 01:25:26;;;;;;;57.17;54.17;;;;;;;27.20;33.01;102211.50;4975590;28;20037;-73
2022/06/17 01:27:57;;;;;;;57.65;54.45;;;;;;;27.17;32.69;102212.09;4975583;28;20031;-74
2022/06/17 01:30:45;;;;;;;57.47;54.30;;;;;;;27.15;32.96;102217.16;4975524;28;20390;-74
2022/06/17 01:33:30;;;;;;;55.58;52.55;;;;;;;27.10;33.28;102215.34;4975395;28;20031;-73
2022/06/17 01:36:17;;;;;;;57.17;53.92;;;;;;;27.07;33.12;102215.97;4975762;28;20034;-74
2022/06/17 01:38:48;;;;;;;57.38;54.20;;;;;;;27.04;33.31;102213.84;4975246;28;20041;-74
2022/06/17 01:41:14;;;;;;;58.28;55.05;;;;;;;27.02;33.32;102221.66;4975321;28;20039;-74
2022/06/17 01:43:51;;;;;;;61.47;58.10;;;;;;;26.98;32.85;102218.69;4975480;28;20035;-74
2022/06/17 01:46:19;;;;;;;55.70;52.85;;;;;;;26.96;33.29;102220.16;4975795;28;20039;-74
2022/06/17 01:48:52;;;;;;;59.08;55.72;;;;;;;26.94;33.43;102214.13;4974535;28;20101;-75
2022/06/17 01:51:20;;;;;;;56.53;53.33;;;;;;;26.90;33.37;102215.91;4975714;28;20045;-74
2022/06/17 01:53:49;;;;;;;55.22;52.03;;;;;;;26.86;33.00;102212.94;4975072;28;20105;-74
2022/06/17 01:56:18;;;;;;;57.50;54.03;;;;;;;26.85;33.14;102210.47;4975038;28;20027;-74
2022/06/17 01:58:51;;;;;;;58.20;54.78;;;;;;;26.82;33.16;102209.16;4975157;28;20516;-74
2022/06/17 02:01:18;;;;;;;55.85;52.70;;;;;;;26.78;33.35;102216.47;4974989;28;20047;-74
2022/06/17 02:03:50;;;;;;;59.08;55.88;;;;;;;26.76;33.41;102218.75;4974586;28;20042;-75
2022/06/17 02:06:28;;;;;;;57.58;54.08;;;;;;;26.71;33.41;102211.41;4974960;28;20035;-74
2022/06/17 02:08:54;;;;;;;56.08;52.92;;;;;;;26.68;33.57;102217.56;4974964;28;20035;-74
2022/06/17 02:11:20;;;;;;;55.97;52.75;;;;;;;26.67;33.17;102217.88;4958207;28;20131;-74
2022/06/17 02:13:46;;;;;;;56.83;53.75;;;;;;;26.64;33.38;102221.28;4975128;28;20093;-74
2022/06/17 02:16:12;;;;;;;55.08;52.15;;;;;;;26.60;33.25;102211.97;4973530;28;20387;-74
2022/06/17 02:18:40;;;;;;;56.28;53.15;;;;;;;26.57;33.30;102216.19;4973743;28;20041;-74
2022/06/17 02:21:13;;;;;;;55.53;52.47;;;;;;;26.54;33.26;102223.19;4974622;28;20030;-74
2022/06/17 02:23:39;;;;;;;56.63;53.38;;;;;;;26.51;33.29;102220.19;4974644;28;20037;-74
2022/06/17 02:26:07;;;;;;;53.08;50.22;;;;;;;26.48;33.23;102221.63;4975423;28;20042;-74
2022/06/17 02:28:35;;;;;;;54.63;50.95;;;;;;;26.45;33.46;102211.19;4974605;28;20078;-74
2022/06/17 02:31:02;;;;;;;56.60;53.05;;;;;;;26.43;33.38;102209.84;4974372;28;20121;-74
2022/06/17 02:33:29;;;;;;;55.60;52.47;;;;;;;26.39;33.50;102203.31;4974600;28;20533;-74
2022/06/17 02:36:00;;;;;;;53.65;50.78;;;;;;;26.37;33.72;102200.06;4974519;28;20038;-74
2022/06/17 02:38:29;;;;;;;54.13;51.13;;;;;;;26.34;33.83;102201.50;4974658;28;20050;-75
2022/06/17 02:41:00;;;;;;;56.72;52.97;;;;;;;26.30;33.82;102206.84;4974382;28;20034;-75
2022/06/17 02:43:32;;;;;;;54.53;51.35;;;;;;;26.27;33.79;102207.47;4974860;28;20030;-74
2022/06/17 02:46:06;;;;;;;52.90;50.00;;;;;;;26.24;33.93;102215.59;4975043;28;20031;-74
2022/06/17 02:48:36;;;;;;;53.17;49.95;;;;;;;26.21;33.57;102213.47;4974819;28;20069;-74
2022/06/17 02:51:02;;;;;;;53.25;50.35;;;;;;;26.18;33.82;102214.06;4973187;28;20519;-74
2022/06/17 02:53:32;;;;;;;55.28;52.25;;;;;;;26.15;34.01;102214.69;4975134;28;20031;-75
2022/06/17 02:55:59;;;;;;;54.70;51.03;;;;;;;26.11;33.52;102220.88;4974326;28;20042;-74
2022/06/17 02:58:43;;;;;;;54.72;51.53;;;;;;;26.09;33.68;102216.78;4974445;28;20066;-76
2022/06/17 03:01:19;;;;;;;55.70;52.38;;;;;;;26.05;34.09;102219.34;4977836;28;20062;-74
2022/06/17 03:03:46;;;;;;;54.30;51.40;;;;;;;26.02;34.06;102221.91;4978205;28;20387;-74
2022/06/17 03:06:19;;;;;;;53.42;50.22;;;;;;;25.99;34.12;102211.47;4977902;28;20035;-74
2022/06/17 03:08:48;;;;;;;53.70;50.72;;;;;;;25.96;34.07;102221.22;4978389;28;20138;-73
2022/06/17 03:11:13;;;;;;;53.67;50.50;;;;;;;25.93;33.80;102218.25;4978039;28;20456;-72
2022/06/17 03:13:44;;;;;;;54.05;50.70;;;;;;;25.89;34.34;102218.88;4978115;28;20042;-72
2022/06/17 03:16:12;;;;;;;52.83;49.63;;;;;;;25.86;33.81;102227.81;4977086;28;20035;-72
2022/06/17 03:18:38;;;;;;;51.97;49.10;;;;;;;25.83;33.87;102222.03;4977875;28;20478;-72
2022/06/17 03:21:06;;;;;;;52.42;49.15;;;;;;;25.82;33.83;102223.16;4977524;28;20471;-72
2022/06/17 03:24:00;;;;;;;51.10;48.40;;;;;;;25.78;33.83;102233.22;4977841;28;20038;-72
2022/06/17 03:26:31;;;;;;;52.58;49.55;;;;;;;25.75;34.06;102233.84;4971787;28;20059;-72
2022/06/17 03:28:58;;;;;;;52.40;49.20;;;;;;;25.71;33.95;102230.06;4978198;28;20034;-72
2022/06/17 03:31:38;;;;;;;51.80;48.80;;;;;;;25.68;34.21;102242.56;4977681;28;20039;-73
2022/06/17 03:34:15;;;;;;;52.00;49.00;;;;;;;25.66;34.56;102239.28;4977625;28;20046;-73
2022/06/17 03:36:53;;;;;;;51.20;48.15;;;;;;;25.63;34.13;102250.97;4977513;28;20031;-72
2022/06/17 03:39:30;;;;;;;50.33;47.42;;;;;;;25.59;34.05;102248.00;4977641;28;20030;-72
2022/06/17 03:42:13;;;;;;;54.28;51.08;;;;;;;25.55;34.43;102244.22;4977892;28;20525;-73
2022/06/17 03:44:50;;;;;;;53.35;50.20;;;;;;;25.53;34.16;102240.09;4977406;28;20463;-72
2022/06/17 03:47:23;;;;;;;50.83;47.92;;;;;;;25.50;34.05;102235.19;4978043;28;20054;-73
2022/06/17 03:50:05;;;;;;;51.85;48.95;;;;;;;25.48;34.61;102238.28;4977892;28;20033;-72
2022/06/17 03:52:53;;;;;;;51.45;48.35;;;;;;;25.44;34.60;102243.59;4977284;28;20042;-73
2022/06/17 03:55:19;;;;;;;;;;;;;;;25.39;34.65;102245.66;4977632;28;20027;-72
2022/06/17 03:57:49;;;;;;;51.92;48.58;;;;;;;25.36;34.37;102249.03;4977170;28;20318;-72
2022/06/17 04:00:21;;;;;;;50.47;47.67;;;;;;;25.33;34.57;102244.94;4977115;28;20047;-72
2022/06/17 04:02:50;;;;;;;50.15;47.22;;;;;;;25.31;34.56;102241.66;4959173;28;20046;-72
2022/06/17 04:05:16;;;;;;;;;;;;;;;25.27;34.34;102240.59;4977629;28;20031;-71
2022/06/17 04:07:42;;;;;;;50.97;47.88;;;;;;;25.25;34.73;102234.59;4976951;28;19914;-71
2022/06/17 04:10:13;;;;;;;51.35;48.33;;;;;;;25.23;34.34;102228.53;4976641;28;20085;-71
2022/06/17 04:12:38;;;;;;;49.15;46.25;;;;;;;25.21;34.83;102228.03;4976269;28;20034;-71
2022/06/17 04:15:29;;;;;;;51.03;48.00;;;;;;;25.18;35.00;102223.91;4976706;28;20121;-71
2022/06/17 04:17:55;;;;;;;50.15;47.25;;;;;;;25.15;35.01;102218.97;4976866;28;20038;-71
2022/06/17 04:20:30;;;;;;;50.38;47.50;;;;;;;25.13;35.08;102225.94;4976422;28;20031;-71
2022/06/17 04:23:01;;;;;;;52.20;48.70;;;;;;;25.11;34.90;102233.72;4976648;28;20085;-72
2022/06/17 04:25:32;;;;;;;51.47;48.65;;;;;;;25.07;34.68;102214.13;4976958;28;20563;-73
2022/06/17 04:28:03;;;;;;;53.00;49.80;;;;;;;25.05;34.86;102210.88;4976575;28;20102;-72
2022/06/17 04:30:33;;;;;;;51.70;48.70;;;;;;;25.02;35.13;102212.31;4976782;28;20031;-71
2022/06/17 04:33:03;;;;;;;52.70;49.65;;;;;;;25.00;35.22;102210.97;4976656;28;20551;-71
2022/06/17 04:35:29;;;;;;;51.25;47.83;;;;;;;24.98;35.00;102207.69;4976655;28;20026;-71
2022/06/17 04:37:54;;;;;;;50.65;47.80;;;;;;;24.95;34.79;102206.34;4976594;28;20082;-70
2022/06/17 04:40:37;;;;;;;50.30;47.60;;;;;;;24.94;34.89;102204.69;4976326;28;20035;-71
2022/06/17 04:43:11;;;;;;;49.55;46.85;;;;;;;24.91;34.91;102197.03;4976031;28;20041;-71
2022/06/17 04:45:36;;;;;;;49.92;47.22;;;;;;;24.89;35.23;102201.22;4976166;28;20069;-71
2022/06/17 04:48:02;;;;;;;49.65;46.97;;;;;;;24.87;35.01;102200.69;4976170;28;20164;-70
2022/06/17 04:50:30;;;;;;;50.45;47.58;;;;;;;24.84;34.95;102202.13;4975114;28;20035;-71
2022/06/17 04:52:55;;;;;;;51.78;48.75;;;;;;;24.82;35.32;102204.38;4976643;28;20467;-71
2022/06/17 04:55:35;;;;;;;48.95;46.05;;;;;;;24.80;35.34;102207.47;4975948;28;20126;-71
2022/06/17 04:58:00;;;;;;;50.33;47.33;;;;;;;24.76;35.02;102195.34;4975805;28;20146;-71
2022/06/17 05:00:28;;;;;;;50.50;47.30;;;;;;;24.75;35.40;102202.03;4975794;28;20333;-69
2022/06/17 05:02:54;;;;;;;49.90;47.08;;;;;;;24.74;35.02;102207.84;4976303;28;20491;-73
2022/06/17 05:05:33;;;;;;;48.55;45.85;;;;;;;24.72;35.25;102202.63;4975851;28;20042;-72
2022/06/17 05:08:01;;;;;;;49.67;46.80;;;;;;;24.70;35.59;102204.88;4975782;28;20077;-72
2022/06/17 05:10:33;;;;;;;48.70;45.67;;;;;;;24.68;35.75;102201.59;4975524;28;20431;-72
2022/06/17 05:13:20;;;;;;;49.33;46.63;;;;;;;24.67;35.18;102190.81;4975794;28;20023;-73
2022/06/17 05:15:46;;;;;;;48.03;45.15;;;;;;;24.62;35.32;102194.53;4975688;28;20069;-71
2022/06/17 05:18:12;;;;;;;50.85;47.50;;;;;;;24.61;35.29;102196.44;4976251;28;20059;-73
2022/06/17 05:20:37;;;;;;;49.47;46.67;;;;;;;24.58;35.73;102202.59;4975614;28;20033;-73
2022/06/17 05:23:05;;;;;;;49.17;46.47;;;;;;;24.58;35.47;102199.00;4974676;28;20051;-73
2022/06/17 05:25:32;;;;;;;;;;;;;;;24.55;35.40;102197.66;4976204;28;20030;-69
2022/06/17 05:27:58;;;;;;;48.40;45.40;;;;;;;24.52;35.93;102190.00;4975781;28;19957;-72
2022/06/17 05:30:31;;;;;;;49.40;46.55;;;;;;;24.52;35.69;102191.91;4975191;28;20034;-74
2022/06/17 05:32:56;;;;;;;49.80;46.90;;;;;;;24.50;35.77;102194.19;4976085;28;20039;-70
2022/06/17 05:35:23;;;;;;;49.38;46.25;;;;;;;24.49;35.64;102189.75;4975366;28;20394;-72
2022/06/17 05:37:49;;;;;;;47.70;45.03;;;;;;;24.47;36.09;102186.47;4975226;28;20517;-70
2022/06/17 05:40:15;;;;;;;48.83;45.88;;;;;;;24.46;36.12;102179.31;4975147;28;20027;-70
2022/06/17 05:42:44;;;;;;;50.22;47.50;;;;;;;24.45;36.16;102183.19;4975103;28;20431;-71
2022/06/17 05:45:20;;;;;;;47.47;44.75;;;;;;;24.43;35.94;102177.13;4975441;28;20039;-71
2022/06/17 05:47:45;;;;;;;48.67;45.97;;;;;;;24.40;35.80;102170.28;4976049;28;20448;-72
2022/06/17 05:50:13;;;;;;;46.03;43.53;;;;;;;24.40;36.21;102170.28;4974759;28;20045;-72
2022/06/17 05:53:06;;;;;;;49.53;46.72;;;;;;;24.39;36.03;102175.00;4975850;28;20061;-72
2022/06/17 05:55:33;;;;;;;46.95;44.33;;;;;;;24.36;36.22;102158.19;4972352;28;20050;-72
2022/06/17 05:57:59;;;;;;;48.20;45.28;;;;;;;24.35;36.14;102168.41;4957452;28;20435;-71
2022/06/17 06:00:26;;;;;;;47.97;45.30;;;;;;;24.35;36.57;102167.59;4974809;28;20069;-74
2022/06/17 06:02:55;;;;;;;51.80;48.67;;;;;;;24.34;36.13;102165.94;4975452;28;20043;-72
2022/06/17 06:05:22;;;;;;;46.78;43.78;;;;;;;24.32;36.23;102169.03;4974770;28;20022;-71
2022/06/17 06:07:48;;;;;;;49.28;46.30;;;;;;;24.31;36.26;102180.34;4974734;28;20103;-71
2022/06/17 06:10:14;;;;;;;46.13;43.63;;;;;;;24.30;36.70;102178.72;4957986;28;20026;-71
2022/06/17 06:13:01;;;;;;;44.25;41.75;;;;;;;24.31;36.58;102174.84;4974566;28;20034;-71
2022/06/17 06:15:40;;;;;;;45.83;43.22;;;;;;;24.29;36.16;102174.31;4974904;28;20468;-71
2022/06/17 06:18:10;;;;;;;46.53;43.47;;;;;;;24.27;36.53;102165.53;4974833;28;20065;-72
2022/06/17 06:20:35;;;;;;;44.60;42.05;;;;;;;24.26;36.26;102163.88;4974942;28;20038;-72
2022/06/17 06:23:01;;;;;;;46.92;43.95;;;;;;;24.26;36.65;102170.22;4972859;28;20058;-72
2022/06/17 06:25:27;;;;;;;45.08;42.47;;;;;;;24.25;36.84;102165.81;4974477;28;20037;-74
2022/06/17 06:27:52;;;;;;;45.60;42.67;;;;;;;24.25;36.57;102171.34;4974379;28;20478;-71
2022/06/17 06:30:24;;;;;;;44.58;42.17;;;;;;;24.25;36.71;102173.28;4974277;28;20030;-74
2022/06/17 06:33:01;;;;;;;45.28;42.63;;;;;;;24.25;36.85;102176.88;4974109;28;20035;-74
2022/06/17 06:35:34;;;;;;;44.72;42.03;;;;;;;24.23;36.53;102179.09;4978716;28;20093;-74
2022/06/17 06:38:00;;;;;;;48.67;45.58;;;;;;;24.23;36.40;102181.06;4980605;28;20078;-74
2022/06/17 06:40:26;;;;;;;44.20;41.70;;;;;;;24.23;36.72;102181.06;4980496;28;20034;-75
2022/06/17 06:42:52;;;;;;;43.65;41.20;;;;;;;24.22;37.22;102176.63;4980988;28;20097;-72
2022/06/17 06:45:22;;;;;;;45.70;43.00;;;;;;;24.22;37.06;102187.69;4980421;28;20383;-74
2022/06/17 06:47:48;;;;;;;45.08;42.55;;;;;;;24.22;36.74;102180.25;4980536;28;20505;-74
2022/06/17 06:50:17;;;;;;;45.80;43.00;;;;;;;24.22;37.30;102183.00;4980493;28;20522;-74
2022/06/17 06:52:43;;;;;;;47.53;44.90;;;;;;;24.23;37.14;102186.56;4980579;28;20041;-72
2022/06/17 06:55:09;;;;;;;45.42;42.78;;;;;;;24.22;37.32;102185.75;4980450;28;20182;-75
2022/06/17 06:57:45;;;;;;;43.75;41.45;;;;;;;24.24;37.05;102179.91;4980597;28;20093;-71
2022/06/17 07:00:14;;;;;;;46.92;43.85;;;;;;;24.24;37.47;102174.41;4981044;28;20042;-76
2022/06/17 07:02:40;;;;;;;43.65;41.08;;;;;;;24.24;37.75;102174.41;4980797;28;20049;-72
2022/06/17 07:05:05;;;;;;;45.67;43.10;;;;;;;24.25;37.87;102176.06;4979676;28;20035;-74
2022/06/17 07:07:31;;;;;;;44.55;42.00;;;;;;;24.25;38.08;102174.09;4980060;28;20395;-72
2022/06/17 07:09:56;;;;;;;44.67;42.28;;;;;;;24.26;37.76;102178.50;4980620;28;20386;-68
2022/06/17 07:12:22;;;;;;;43.83;41.05;;;;;;;24.28;37.77;102175.44;4980146;28;20097;-75
2022/06/17 07:14:47;;;;;;;43.22;40.92;;;;;;;24.29;37.93;102182.59;4980286;28;20085;-74
2022/06/17 07:17:14;;;;;;;45.55;42.72;;;;;;;24.30;37.63;102181.50;4980296;28;20480;-75
2022/06/17 07:19:39;;;;;;;44.85;42.42;;;;;;;24.32;37.86;102179.25;4980318;28;20045;-74
2022/06/17 07:22:05;;;;;;;44.60;42.20;;;;;;;24.34;37.48;102179.75;4980294;28;20042;-75
2022/06/17 07:24:30;;;;;;;40.90;38.78;;;;;;;24.35;37.99;102173.94;4980336;28;20035;-74
2022/06/17 07:26:56;;;;;;;46.80;44.03;;;;;;;24.38;37.79;102169.75;4980437;28;20180;-74
2022/06/17 07:29:21;;;;;;;43.28;40.83;;;;;;;24.40;37.90;102170.28;4980308;28;20038;-75
2022/06/17 07:31:46;;;;;;;41.10;39.05;;;;;;;24.43;37.40;102168.84;4962941;28;20039;-75
2022/06/17 07:34:12;;;;;;;42.65;40.35;;;;;;;24.44;37.64;102170.47;4980809;28;20061;-74
2022/06/17 07:42:05;;;;;;;43.45;40.70;;;;;;;24.54;37.32;102187.72;4980026;28;20054;-75
2022/06/17 07:44:32;;;;;;;43.80;41.13;;;;;;;24.57;37.48;102187.13;4980692;28;20032;-76
2022/06/17 07:46:57;;;;;;;41.55;38.85;;;;;;;24.61;37.73;102181.81;4977254;28;20088;-75
2022/06/17 07:49:22;;;;;;;42.88;40.58;;;;;;;24.65;37.60;102177.34;4977275;28;20105;-76
2022/06/17 07:51:49;;;;;;;42.17;39.97;;;;;;;24.69;37.65;102183.88;4977522;28;20038;-75
2022/06/17 07:54:15;;;;;;;41.88;39.53;;;;;;;24.72;37.33;102188.81;4977083;28;20121;-76
2022/06/17 07:56:41;;;;;;;40.95;38.85;;;;;;;24.75;37.65;102173.56;4977385;28;20455;-75
2022/06/17 07:59:06;;;;;;;46.08;43.20;;;;;;;24.79;37.82;102180.94;4977029;28;20153;-75
2022/06/17 08:01:31;;;;;;;43.30;41.10;;;;;;;24.83;37.86;102181.97;4977025;28;20050;-76
2022/06/17 08:03:57;;;;;;;42.13;39.92;;;;;;;24.89;37.75;102187.41;4976641;28;20470;-75
2022/06/17 08:06:22;;;;;;;43.67;41.42;;;;;;;24.93;37.23;102192.00;4975652;28;20037;-76
2022/06/17 08:08:48;;;;;;;47.28;44.55;;;;;;;24.98;37.76;102199.41;4959972;28;20081;-76
2022/06/17 08:11:14;;;;;;;44.83;42.10;;;;;;;25.02;37.29;102198.50;4976994;28;20122;-76
2022/06/17 08:13:40;;;;;;;43.05;40.88;;;;;;;25.07;37.80;102200.31;4976962;28;20031;-74
2022/06/17 08:16:09;;;;;;;45.45;42.83;;;;;;;25.13;37.55;102204.63;4976873;28;20078;-74
2022/06/17 08:18:37;;;;;;;45.65;43.13;;;;;;;25.17;37.78;102200.16;4977109;28;20086;-75
2022/06/17 08:21:03;;;;;;;45.55;42.90;;;;;;;25.22;37.28;102190.94;4976339;28;20395;-68
2022/06/17 08:23:29;;;;;;;43.60;41.50;;;;;;;25.27;37.80;102193.59;4976787;28;20037;-75
2022/06/17 08:25:57;;;;;;;47.00;44.28;;;;;;;25.30;37.66;102168.13;4976446;28;20114;-73
2022/06/17 08:28:23;;;;;;;43.67;41.40;;;;;;;25.35;37.74;102154.19;4976684;28;20093;-74
2022/06/17 08:30:51;;;;;;;46.15;43.83;;;;;;;25.40;37.20;102150.47;4976596;28;20030;-74
2022/06/17 08:33:24;;;;;;;47.97;45.58;;;;;;;25.46;37.18;102143.69;4976419;28;20038;-75
2022/06/17 08:35:49;;;;;;;45.45;43.25;;;;;;;25.51;37.52;102149.13;4976405;28;20037;-74
2022/06/17 08:38:23;;;;;;;46.10;43.90;;;;;;;25.57;37.22;102156.16;4976261;28;20042;-74
2022/06/17 08:41:04;;;;;;;48.00;45.15;;;;;;;25.64;37.45;102166.81;4976393;28;20023;-74
2022/06/17 08:43:48;;;;;;;46.10;43.60;;;;;;;25.71;37.24;102174.72;4976415;28;20027;-74
2022/06/17 08:46:35;;;;;;;47.90;45.17;;;;;;;25.79;37.53;102187.81;4975981;28;20526;-74
2022/06/17 08:49:03;;;;;;;47.30;44.80;;;;;;;25.84;37.40;102191.28;4977002;28;20448;-74
2022/06/17 08:51:50;;;;;;;47.30;44.50;;;;;;;25.92;37.00;102189.75;4975795;28;20424;-74
2022/06/17 08:54:21;;;;;;;47.38;44.88;;;;;;;26.00;37.24;102191.75;4976633;28;20031;-74
2022/06/17 08:56:51;;;;;;;47.25;44.95;;;;;;;26.06;36.87;102190.53;4975957;28;20045;-74
2022/06/17 08:59:16;;;;;;;51.08;48.47;;;;;;;26.15;37.00;102184.22;4975569;28;20058;-73
2022/06/17 09:01:56;;;;;;;47.88;45.53;;;;;;;26.23;36.85;102180.69;4975660;28;20082;-74
2022/06/17 09:04:34;;;;;;;48.85;46.45;;;;;;;26.30;37.02;102183.84;4958874;28;20038;-74
2022/06/17 09:07:23;;;;;;;47.92;45.33;;;;;;;26.38;37.16;102185.88;4975926;28;20023;-73
2022/06/17 09:10:12;;;;;;;50.25;47.65;;;;;;;26.48;36.77;102187.56;4976214;28;20089;-74
2022/06/17 09:13:12;;;;;;;48.85;46.15;;;;;;;26.56;36.72;102192.41;4976106;28;20043;-73
2022/06/17 09:16:22;;;;;;;48.78;46.10;;;;;;;26.65;36.57;102184.94;4973664;28;20041;-74
2022/06/17 09:18:54;;;;;;;50.03;47.22;;;;;;;26.73;37.00;102180.56;4960061;28;20054;-73
2022/06/17 09:21:32;;;;;;;52.47;49.97;;;;;;;26.83;36.69;102171.97;4974578;28;20062;-74
2022/06/17 09:24:09;;;;;;;51.13;48.45;;;;;;;26.92;36.06;102175.63;4975872;28;20031;-74
2022/06/17 09:27:00;;;;;;;51.40;48.80;;;;;;;27.02;36.31;102170.94;4975546;28;20042;-74
2022/06/17 09:29:28;;;;;;;51.72;49.13;;;;;;;27.09;36.57;102169.34;4975369;28;20039;-74
2022/06/17 09:32:10;;;;;;;51.40;48.63;;;;;;;27.19;36.29;102182.94;4975382;28;20050;-74
2022/06/17 09:34:47;;;;;;;51.67;49.17;;;;;;;27.28;36.00;102174.63;4975690;28;20479;-74
2022/06/17 09:37:22;;;;;;;53.00;50.40;;;;;;;27.37;35.89;102174.66;4976107;28;20125;-74
2022/06/17 09:39:56;;;;;;;52.45;49.70;;;;;;;27.47;35.76;102174.38;4975290;28;20033;-73
2022/06/17 09:42:31;;;;;;;52.92;50.22;;;;;;;27.56;35.37;102169.63;4974862;28;20117;-74
2022/06/17 09:45:05;;;;;;;53.97;51.05;;;;;;;27.66;35.40;102168.50;4975780;28;20162;-74
2022/06/17 09:47:36;;;;;;;53.38;50.67;;;;;;;27.77;35.37;102171.78;4975434;28;20026;-74
2022/06/17 09:50:08;;;;;;;54.22;51.13;;;;;;;27.87;35.34;102170.66;4975127;28;20027;-73
2022/06/17 09:52:41;;;;;;;58.08;55.00;;;;;;;27.95;35.46;102164.31;4974230;28;20039;-73
2022/06/17 09:55:23;;;;;;;55.17;52.58;;;;;;;28.05;35.28;102159.25;4974893;28;20089;-73
2022/06/17 09:57:54;;;;;;;57.38;54.67;;;;;;;28.13;35.44;102154.03;4975323;28;20077;-72
2022/06/17 10:00:25;;;;;;;58.67;55.92;;;;;;;28.22;35.02;102155.66;4974918;28;20056;-73
2022/06/17 10:02:55;;;;;;;55.20;52.50;;;;;;;28.32;34.52;102162.78;4975536;28;20043;-73
2022/06/17 10:05:45;;;;;;;59.20;56.30;;;;;;;28.43;35.42;102157.72;4975257;28;20037;-72
2022/06/17 10:08:16;;;;;;;58.97;55.95;;;;;;;28.52;34.79;102143.81;4974827;28;20034;-74
2022/06/17 10:11:06;;;;;;;58.53;55.63;;;;;;;28.63;34.74;102145.13;4974304;28;20027;-73
2022/06/17 10:13:42;;;;;;;58.13;55.22;;;;;;;28.73;34.97;102144.75;4975049;28;20088;-72
2022/06/17 10:19:38;;;;;;;58.75;55.85;;;;;;;28.94;34.46;102136.47;4974601;28;20042;-73
2022/06/17 10:22:10;;;;;;;59.87;56.77;;;;;;;29.04;34.56;102138.06;4975239;28;20035;-76
2022/06/17 10:24:59;;;;;;;59.17;56.30;;;;;;;29.15;33.92;102136.56;4975261;28;20038;-74
2022/06/17 10:28:01;;;;;;;62.05;59.05;;;;;;;29.25;34.34;102138.13;4974657;28;20030;-75
2022/06/17 10:30:48;;;;;;;59.53;56.63;;;;;;;29.34;34.13;102136.13;4974503;28;20038;-74
2022/06/17 10:33:16;;;;;;;62.90;59.92;;;;;;;29.45;34.06;102133.75;4974863;28;20027;-69
2022/06/17 10:35:43;;;;;;;;;;;;;;;29.53;34.06;102135.66;4974662;28;20365;-74
2022/06/17 10:38:16;;;;;;;58.67;55.88;;;;;;;29.61;34.03;102139.53;4974624;28;19914;-74
2022/06/17 10:40:42;;;;;;;65.25;61.67;;;;;;;29.69;33.77;102136.72;4974830;28;20038;-74
2022/06/17 10:43:14;;;;;;;62.20;59.00;;;;;;;29.80;33.54;102136.31;4974182;28;20039;-73
2022/06/17 10:45:40;;;;;;;62.55;59.63;;;;;;;29.89;33.11;102134.28;4974727;28;20027;-73
2022/06/17 10:48:30;;;;;;;63.72;60.75;;;;;;;30.00;32.95;102138.25;4974484;28;20050;-74
2022/06/17 10:50:56;;;;;;;65.88;62.88;;;;;;;30.08;32.78;102137.34;4974389;28;20035;-72
2022/06/17 10:53:40;;;;;;;67.00;63.70;;;;;;;30.17;32.33;102132.50;4974926;28;20045;-73
2022/06/17 10:56:11;;;;;;;64.25;61.35;;;;;;;30.27;32.26;102119.34;4974720;28;20467;-73
2022/06/17 10:58:37;;;;;;;67.60;64.38;;;;;;;30.36;32.29;102117.25;4974964;28;20031;-74
2022/06/17 11:01:15;;;;;;;65.97;62.55;;;;;;;30.45;32.23;102119.97;4974203;28;20142;-73
2022/06/17 11:03:42;;;;;;;64.18;61.17;;;;;;;30.53;32.71;102117.06;4974840;28;20166;-73
2022/06/17 11:06:19;;;;;;;68.18;64.47;;;;;;;30.62;32.16;102103.03;4974290;28;20039;-71
2022/06/17 11:09:00;;;;;;;69.65;66.15;;;;;;;30.72;31.97;102096.16;4974616;28;20459;-73
2022/06/17 11:14:23;;;;;;;69.53;66.13;;;;;;;30.88;32.10;102090.75;4974529;28;20041;-70
2022/06/17 11:16:49;;;;;;;66.35;63.33;;;;;;;30.96;31.60;102095.38;4974410;28;20474;-73
2022/06/17 11:19:19;;;;;;;65.70;62.65;;;;;;;31.04;31.85;102084.09;4956994;28;20218;-73
2022/06/17 11:21:49;;;;;;;66.05;63.03;;;;;;;31.13;32.16;102085.94;4975085;28;20093;-73
2022/06/17 11:24:28;;;;;;;66.53;63.40;;;;;;;31.21;31.83;102085.00;4978136;28;20078;-73
2022/06/17 11:27:05;;;;;;;67.10;64.05;;;;;;;31.29;31.65;102078.47;4978125;28;20162;-73
2022/06/17 11:29:51;;;;;;;68.78;65.57;;;;;;;31.38;31.91;102079.19;4977961;28;20031;-73
2022/06/17 11:32:19;;;;;;;67.85;64.72;;;;;;;31.45;31.71;102090.56;4977747;28;20082;-73
2022/06/17 11:34:47;;;;;;;;;;;;;;;31.51;32.34;102082.75;4977796;28;20059;-73
2022/06/17 11:37:21;;;;;;;71.28;67.95;;;;;;;31.57;31.73;102078.53;4977998;28;20243;-73
2022/06/17 11:39:47;;;;;;;72.07;68.68;;;;;;;31.66;31.61;102064.44;4977329;28;20530;-73
2022/06/17 11:42:18;;;;;;;75.28;71.57;;;;;;;31.73;31.42;102058.22;4977299;28;20030;-74
2022/06/17 11:44:59;;;;;;;70.68;67.20;;;;;;;31.81;30.96;102063.66;4977373;28;20072;-72
2022/06/17 11:47:28;;;;;;;71.50;68.10;;;;;;;31.87;31.05;102062.22;4977225;28;20029;-73
2022/06/17 11:49:58;;;;;;;69.38;65.90;;;;;;;31.96;30.90;102058.50;4977046;28;20026;-72
2022/06/17 11:52:31;;;;;;;72.03;68.72;;;;;;;32.04;30.35;102046.34;4977338;28;20034;-73
2022/06/17 11:54:57;;;;;;;71.40;68.00;;;;;;;32.12;30.22;102053.72;4960199;28;20034;-73
2022/06/17 11:57:30;;;;;;;74.35;70.85;;;;;;;32.19;30.50;102048.31;4977149;28;20035;-73
2022/06/17 11:59:58;;;;;;;72.88;69.32;;;;;;;32.27;30.70;102047.34;4977736;28;20035;-72
2022/06/17 12:02:24;;;;;;;73.40;70.00;;;;;;;32.34;30.56;102041.13;4977424;28;20055;-73
2022/06/17 12:04:54;;;;;;;77.90;74.40;;;;;;;32.42;30.37;102042.09;4977052;28;20038;-71
2022/06/17 12:07:28;;;;;;;74.13;70.53;;;;;;;32.49;30.50;102045.13;4977030;28;20035;-74
2022/06/17 12:10:29;;;;;;;75.72;72.35;;;;;;;32.58;30.52;102051.31;4977049;28;20387;-74
2022/06/17 12:13:21;;;;;;;78.90;75.38;;;;;;;32.65;30.23;102034.72;4977503;28;20046;-73
2022/06/17 12:15:52;;;;;;;75.68;72.18;;;;;;;32.72;30.36;102051.66;4976855;28;20030;-74
2022/06/17 12:18:27;;;;;;;76.90;73.40;;;;;;;32.79;30.08;102041.84;4976058;28;20038;-74
2022/06/17 12:20:59;;;;;;;77.75;74.13;;;;;;;32.86;29.61;102039.19;4976253;28;20099;-73
2022/06/17 12:23:51;;;;;;;81.07;77.38;;;;;;;32.93;29.53;102028.97;4976669;28;20110;-73
2022/06/17 12:26:27;;;;;;;77.70;73.90;;;;;;;33.00;29.21;102031.13;4977000;28;20061;-74
2022/06/17 12:29:13;;;;;;;77.78;74.18;;;;;;;33.07;29.23;102027.72;4976411;28;20492;-73
2022/06/17 12:31:53;;;;;;;78.97;75.38;;;;;;;33.12;29.37;102019.81;4976454;28;20451;-73
2022/06/17 12:34:24;;;;;;;79.43;75.63;;;;;;;33.17;29.28;102027.94;4976505;28;20109;-73
2022/06/17 12:36:56;;;;;;;82.20;78.47;;;;;;;33.24;29.28;102026.44;4975510;28;20113;-75
2022/06/17 12:39:36;;;;;;;82.68;78.80;;;;;;;33.29;29.06;102032.59;4976461;28;20472;-74
2022/06/17 12:42:12;;;;;;;85.43;81.53;;;;;;;33.35;29.15;102027.50;4976757;28;20031;-74
2022/06/17 12:44:43;;;;;;;79.95;76.40;;;;;;;33.42;28.71;102030.44;4976347;28;20027;-73
2022/06/17 12:47:32;;;;;;;79.97;76.40;;;;;;;33.47;28.98;102020.94;4976659;28;20030;-74